createdAt,value
2018-08-04T00:00:13.234Z,991.39
2018-08-04T00:01:13.215Z,991.40
2018-08-04T00:02:13.254Z,991.35
2018-08-04T00:03:13.238Z,991.40
2018-08-04T00:04:13.183Z,991.36
2018-08-04T00:05:13.204Z,991.38
2018-08-04T00:06:13.224Z,991.35
2018-08-04T00:07:13.146Z,991.39
2018-08-04T00:08:13.172Z,991.36
2018-08-04T00:09:13.187Z,991.41
2018-08-04T00:10:13.145Z,991.41
2018-08-04T00:11:13.129Z,991.40
2018-08-04T00:12:13.103Z,991.39
2018-08-04T00:13:13.158Z,991.35
2018-08-04T00:14:13.091Z,991.36
2018-08-04T00:15:13.043Z,991.34
2018-08-04T00:16:13.093Z,991.35
2018-08-04T00:17:13.051Z,991.35
2018-08-04T00:18:13.059Z,991.31
2018-08-04T00:19:13.027Z,991.34
2018-08-04T00:20:13.057Z,991.29
2018-08-04T00:21:13.055Z,991.32
2018-08-04T00:22:12.986Z,991.36
2018-08-04T00:23:13.007Z,991.33
2018-08-04T00:24:12.977Z,991.29
2018-08-04T00:25:12.959Z,991.36
2018-08-04T00:26:12.971Z,991.33
2018-08-04T00:27:12.943Z,991.32
2018-08-04T00:28:12.949Z,991.25
2018-08-04T00:29:12.973Z,991.27
2018-08-04T00:30:12.920Z,991.30
2018-08-04T00:31:12.969Z,991.27
2018-08-04T00:32:12.888Z,991.24
2018-08-04T00:33:12.940Z,991.29
2018-08-04T00:34:12.870Z,991.29
2018-08-04T00:35:12.853Z,991.31
2018-08-04T00:36:12.839Z,991.24
2018-08-04T00:37:12.842Z,991.27
2018-08-04T00:38:12.853Z,991.30
2018-08-04T00:39:12.817Z,991.25
2018-08-04T00:40:12.808Z,991.26
2018-08-04T00:41:12.786Z,991.25
2018-08-04T00:42:12.771Z,991.25
2018-08-04T00:43:12.791Z,991.35
2018-08-04T00:44:12.796Z,991.37
2018-08-04T00:45:12.740Z,991.30
2018-08-04T00:46:12.739Z,991.27
2018-08-04T00:47:12.717Z,991.27
2018-08-04T00:48:12.716Z,991.29
2018-08-04T00:49:12.750Z,991.26
2018-08-04T00:50:12.767Z,991.33
2018-08-04T00:51:12.690Z,991.25
2018-08-04T00:52:12.665Z,991.34
2018-08-04T00:53:12.657Z,991.33
2018-08-04T00:54:12.732Z,991.28
2018-08-04T00:55:12.647Z,991.24
2018-08-04T00:56:12.662Z,991.22
2018-08-04T00:57:12.624Z,991.25
2018-08-04T00:58:12.612Z,991.26
2018-08-04T00:59:12.657Z,991.28
2018-08-04T01:00:12.649Z,991.31
2018-08-04T01:01:12.595Z,991.27
2018-08-04T01:02:12.584Z,991.32
2018-08-04T01:03:12.549Z,991.31
2018-08-04T01:04:12.575Z,991.27
2018-08-04T01:05:12.543Z,991.29
2018-08-04T01:06:12.535Z,991.28
2018-08-04T01:07:12.530Z,991.25
2018-08-04T01:08:12.520Z,991.23
2018-08-04T01:09:12.523Z,991.23
2018-08-04T01:10:12.487Z,991.26
2018-08-04T01:11:12.487Z,991.27
2018-08-04T01:12:12.480Z,991.26
2018-08-04T01:13:12.487Z,991.32
2018-08-04T01:14:12.457Z,991.28
2018-08-04T01:15:12.432Z,991.27
2018-08-04T01:16:12.417Z,991.25
2018-08-04T01:17:12.419Z,991.20
2018-08-04T01:18:12.402Z,991.23
2018-08-04T01:19:12.403Z,991.26
2018-08-04T01:20:12.391Z,991.19
2018-08-04T01:21:12.384Z,991.25
2018-08-04T01:22:12.363Z,991.21
2018-08-04T01:23:12.358Z,991.26
2018-08-04T01:24:12.363Z,991.24
2018-08-04T01:25:12.351Z,991.28
2018-08-04T01:26:12.304Z,991.22
2018-08-04T01:27:12.304Z,991.25
2018-08-04T01:28:12.290Z,991.24
2018-08-04T01:29:12.322Z,991.26
2018-08-04T01:30:12.254Z,991.23
2018-08-04T01:31:12.261Z,991.22
2018-08-04T01:32:12.251Z,991.27
2018-08-04T01:33:12.240Z,991.26
2018-08-04T01:34:12.230Z,991.29
2018-08-04T01:35:12.252Z,991.29
2018-08-04T01:36:12.221Z,991.27
2018-08-04T01:37:12.219Z,991.30
2018-08-04T01:38:12.386Z,991.32
2018-08-04T01:39:12.168Z,991.28
2018-08-04T01:40:12.175Z,991.31
2018-08-04T01:41:12.136Z,991.29
2018-08-04T01:42:12.145Z,991.36
2018-08-04T01:43:12.148Z,991.32
2018-08-04T01:44:12.121Z,991.31
2018-08-04T01:45:12.129Z,991.26
2018-08-04T01:46:12.091Z,991.27
2018-08-04T01:47:12.083Z,991.23
2018-08-04T01:48:12.074Z,991.22
2018-08-04T01:49:12.076Z,991.24
2018-08-04T01:50:12.094Z,991.21
2018-08-04T01:51:12.068Z,991.22
2018-08-04T01:52:12.059Z,991.22
2018-08-04T01:53:12.019Z,991.18
2018-08-04T01:54:12.016Z,991.18
2018-08-04T01:55:12.016Z,991.19
2018-08-04T01:56:11.987Z,991.21
2018-08-04T01:57:11.979Z,991.20
2018-08-04T01:58:11.982Z,991.21
2018-08-04T01:59:11.977Z,991.19
2018-08-04T02:00:11.977Z,991.26
2018-08-04T02:01:11.958Z,991.17
2018-08-04T02:02:11.928Z,991.19
2018-08-04T02:03:11.913Z,991.23
2018-08-04T02:04:11.900Z,991.21
2018-08-04T02:05:11.908Z,991.20
2018-08-04T02:06:11.877Z,991.20
2018-08-04T02:07:11.910Z,991.19
2018-08-04T02:08:11.885Z,991.22
2018-08-04T02:09:11.857Z,991.23
2018-08-04T02:10:11.869Z,991.16
2018-08-04T02:11:11.842Z,991.18
2018-08-04T02:12:11.829Z,991.13
2018-08-04T02:13:11.799Z,991.13
2018-08-04T02:14:11.790Z,991.14
2018-08-04T02:15:11.799Z,991.19
2018-08-04T02:16:11.764Z,991.10
2018-08-04T02:17:11.759Z,991.14
2018-08-04T02:18:11.753Z,991.11
2018-08-04T02:19:11.744Z,991.14
2018-08-04T02:20:11.752Z,991.17
2018-08-04T02:21:11.726Z,991.15
2018-08-04T02:22:11.730Z,991.19
2018-08-04T02:23:11.706Z,991.13
2018-08-04T02:24:11.678Z,991.13
2018-08-04T02:25:11.697Z,991.16
2018-08-04T02:26:11.673Z,991.17
2018-08-04T02:27:11.669Z,991.19
2018-08-04T02:28:11.635Z,991.18
2018-08-04T02:29:11.626Z,991.24
2018-08-04T02:30:11.651Z,991.21
2018-08-04T02:31:11.626Z,991.16
2018-08-04T02:32:11.597Z,991.16
2018-08-04T02:33:11.583Z,991.15
2018-08-04T02:34:11.570Z,991.16
2018-08-04T02:35:11.581Z,991.14
2018-08-04T02:36:11.563Z,991.14
2018-08-04T02:37:11.559Z,991.23
2018-08-04T02:38:11.547Z,991.12
2018-08-04T02:39:11.537Z,991.18
2018-08-04T02:40:11.558Z,991.13
2018-08-04T02:41:11.493Z,991.13
2018-08-04T02:42:11.502Z,991.12
2018-08-04T02:43:11.492Z,991.08
2018-08-04T02:44:11.466Z,991.08
2018-08-04T02:45:11.466Z,991.07
2018-08-04T02:46:11.459Z,991.07
2018-08-04T02:47:11.451Z,991.10
2018-08-04T02:48:11.421Z,991.11
2018-08-04T02:49:11.411Z,991.07
2018-08-04T02:50:11.416Z,991.08
2018-08-04T02:51:11.419Z,991.06
2018-08-04T02:52:11.815Z,991.06
2018-08-04T02:53:11.359Z,991.06
2018-08-04T02:54:11.362Z,991.08
2018-08-04T02:55:11.384Z,991.07
2018-08-04T02:56:11.346Z,991.07
2018-08-04T02:57:11.327Z,991.05
2018-08-04T02:58:11.306Z,991.07
2018-08-04T02:59:11.301Z,991.03
2018-08-04T03:00:11.315Z,991.03
2018-08-04T03:01:11.293Z,991.03
2018-08-04T03:02:11.277Z,991.02
2018-08-04T03:03:11.251Z,991.03
2018-08-04T03:04:11.237Z,991.05
2018-08-04T03:05:11.256Z,991.04
2018-08-04T03:06:11.253Z,991.09
2018-08-04T03:07:11.221Z,991.02
2018-08-04T03:08:11.207Z,991.06
2018-08-04T03:09:11.201Z,991.06
2018-08-04T03:10:11.195Z,991.05
2018-08-04T03:11:11.176Z,991.01
2018-08-04T03:12:11.151Z,991.01
2018-08-04T03:13:11.141Z,991.01
2018-08-04T03:14:11.132Z,991.06
2018-08-04T03:15:11.123Z,991.05
2018-08-04T03:16:11.148Z,991.05
2018-08-04T03:17:11.147Z,991.08
2018-08-04T03:18:11.106Z,991.07
2018-08-04T03:19:11.098Z,991.09
2018-08-04T03:20:11.072Z,991.06
2018-08-04T03:21:11.098Z,991.07
2018-08-04T03:22:11.066Z,991.10
2018-08-04T03:23:11.039Z,991.08
2018-08-04T03:24:11.029Z,991.08
2018-08-04T03:25:11.023Z,991.11
2018-08-04T03:26:11.017Z,991.08
2018-08-04T03:27:11.005Z,991.07
2018-08-04T03:28:10.988Z,991.11
2018-08-04T03:29:10.974Z,991.13
2018-08-04T03:30:11.005Z,991.10
2018-08-04T03:31:10.971Z,991.11
2018-08-04T03:32:10.943Z,991.18
2018-08-04T03:33:10.929Z,991.12
2018-08-04T03:34:10.923Z,991.16
2018-08-04T03:35:10.909Z,991.18
2018-08-04T03:36:10.959Z,991.19
2018-08-04T03:37:10.910Z,991.20
2018-08-04T03:38:10.879Z,991.26
2018-08-04T03:39:10.865Z,991.29
2018-08-04T03:40:10.854Z,991.24
2018-08-04T03:41:10.848Z,991.28
2018-08-04T03:42:10.836Z,991.29
2018-08-04T03:43:10.835Z,991.31
2018-08-04T03:44:10.836Z,991.38
2018-08-04T03:45:10.798Z,991.35
2018-08-04T03:46:10.811Z,991.36
2018-08-04T03:47:10.782Z,991.38
2018-08-04T03:48:10.767Z,991.39
2018-08-04T03:49:10.755Z,991.43
2018-08-04T03:50:10.771Z,991.42
2018-08-04T03:51:10.731Z,991.43
2018-08-04T03:52:10.747Z,991.44
2018-08-04T03:53:10.713Z,991.41
2018-08-04T03:54:10.699Z,991.45
2018-08-04T03:55:10.682Z,991.47
2018-08-04T03:56:10.699Z,991.45
2018-08-04T03:57:10.688Z,991.45
2018-08-04T03:58:10.661Z,991.47
2018-08-04T03:59:10.656Z,991.51
2018-08-04T04:00:10.650Z,991.53
2018-08-04T04:01:10.628Z,991.53
2018-08-04T04:02:10.662Z,991.51
2018-08-04T04:03:10.622Z,991.57
2018-08-04T04:04:10.600Z,991.55
2018-08-04T04:05:10.597Z,991.52
2018-08-04T04:06:10.596Z,991.54
2018-08-04T04:07:10.595Z,991.56
2018-08-04T04:08:10.560Z,991.47
2018-08-04T04:09:10.563Z,991.47
2018-08-04T04:10:10.556Z,991.52
2018-08-04T04:11:10.536Z,991.48
2018-08-04T04:12:10.545Z,991.48
2018-08-04T04:13:10.504Z,991.49
2018-08-04T04:14:10.505Z,991.42
2018-08-04T04:15:10.488Z,991.43
2018-08-04T04:16:10.478Z,991.46
2018-08-04T04:17:10.507Z,991.52
2018-08-04T04:18:10.442Z,991.52
2018-08-04T04:19:10.452Z,991.54
2018-08-04T04:20:10.456Z,991.53
2018-08-04T04:21:10.423Z,991.57
2018-08-04T04:22:10.414Z,991.59
2018-08-04T04:23:10.446Z,991.61
2018-08-04T04:24:10.376Z,991.57
2018-08-04T04:25:10.369Z,991.55
2018-08-04T04:26:10.360Z,991.53
2018-08-04T04:27:10.358Z,991.57
2018-08-04T04:28:10.350Z,991.58
2018-08-04T04:29:10.318Z,991.60
2018-08-04T04:30:10.327Z,991.62
2018-08-04T04:31:10.305Z,991.57
2018-08-04T04:32:10.309Z,991.56
2018-08-04T04:33:10.287Z,991.54
2018-08-04T04:34:10.287Z,991.59
2018-08-04T04:35:10.276Z,991.60
2018-08-04T04:36:10.269Z,991.66
2018-08-04T04:37:10.259Z,991.62
2018-08-04T04:38:10.260Z,991.62
2018-08-04T04:39:10.239Z,991.65
2018-08-04T04:40:10.233Z,991.66
2018-08-04T04:41:10.227Z,991.66
2018-08-04T04:42:10.208Z,991.67
2018-08-04T04:43:10.176Z,991.75
2018-08-04T04:44:10.190Z,991.72
2018-08-04T04:45:10.200Z,991.65
2018-08-04T04:46:10.160Z,991.68
2018-08-04T04:47:10.180Z,991.68
2018-08-04T04:48:10.146Z,991.67
2018-08-04T04:49:10.117Z,991.76
2018-08-04T04:50:10.134Z,991.71
2018-08-04T04:51:10.090Z,991.70
2018-08-04T04:52:10.110Z,991.70
2018-08-04T04:53:10.083Z,991.68
2018-08-04T04:54:10.081Z,991.71
2018-08-04T04:55:10.080Z,991.69
2018-08-04T04:56:10.058Z,991.72
2018-08-04T04:57:10.060Z,991.72
2018-08-04T04:58:10.029Z,991.74
2018-08-04T04:59:10.106Z,991.72
2018-08-04T05:00:10.038Z,991.71
2018-08-04T05:01:10.019Z,991.74
2018-08-04T05:02:09.995Z,991.75
2018-08-04T05:03:09.983Z,991.70
2018-08-04T05:04:09.974Z,991.72
2018-08-04T05:05:09.959Z,991.77
2018-08-04T05:06:09.951Z,991.77
2018-08-04T05:07:09.989Z,991.75
2018-08-04T05:08:09.916Z,991.79
2018-08-04T05:09:09.900Z,991.77
2018-08-04T05:10:09.904Z,991.76
2018-08-04T05:11:09.903Z,991.75
2018-08-04T05:12:09.870Z,991.75
2018-08-04T05:13:09.878Z,991.75
2018-08-04T05:14:09.849Z,991.70
2018-08-04T05:15:09.834Z,991.71
2018-08-04T05:16:09.845Z,991.73
2018-08-04T05:17:09.809Z,991.74
2018-08-04T05:18:09.823Z,991.74
2018-08-04T05:19:09.793Z,991.68
2018-08-04T05:20:09.779Z,991.74
2018-08-04T05:21:09.766Z,991.77
2018-08-04T05:22:09.777Z,991.80
2018-08-04T05:23:09.772Z,991.82
2018-08-04T05:24:09.736Z,991.80
2018-08-04T05:25:09.726Z,991.85
2018-08-04T05:26:09.713Z,991.89
2018-08-04T05:27:09.705Z,991.86
2018-08-04T05:28:09.711Z,991.87
2018-08-04T05:29:09.696Z,991.84
2018-08-04T05:30:09.687Z,991.86
2018-08-04T05:31:09.666Z,991.90
2018-08-04T05:32:09.698Z,991.81
2018-08-04T05:33:09.733Z,991.81
2018-08-04T05:34:09.644Z,991.83
2018-08-04T05:35:09.648Z,991.79
2018-08-04T05:36:09.618Z,991.81
2018-08-04T05:37:09.612Z,991.81
2018-08-04T05:38:09.619Z,991.84
2018-08-04T05:39:09.608Z,991.88
2018-08-04T05:40:09.577Z,991.94
2018-08-04T05:41:09.553Z,991.90
2018-08-04T05:42:09.568Z,991.94
2018-08-04T05:43:09.597Z,991.91
2018-08-04T05:44:09.526Z,991.90
2018-08-04T05:45:09.536Z,991.90
2018-08-04T05:46:09.521Z,991.95
2018-08-04T05:47:09.514Z,991.95
2018-08-04T05:48:09.515Z,991.96
2018-08-04T05:49:09.478Z,991.97
2018-08-04T05:50:09.463Z,991.92
2018-08-04T05:51:09.446Z,991.94
2018-08-04T05:52:09.447Z,991.94
2018-08-04T05:53:09.464Z,991.97
2018-08-04T05:54:09.441Z,991.97
2018-08-04T05:55:09.406Z,992.01
2018-08-04T05:56:09.401Z,992.02
2018-08-04T05:57:09.381Z,992.03
2018-08-04T05:58:09.389Z,992.07
2018-08-04T05:59:09.362Z,992.05
2018-08-04T06:00:09.395Z,991.99
2018-08-04T06:01:09.339Z,992.07
2018-08-04T06:02:09.331Z,992.08
2018-08-04T06:03:09.381Z,992.08
2018-08-04T06:04:09.308Z,992.04
2018-08-04T06:05:09.295Z,992.04
2018-08-04T06:06:09.297Z,992.09
2018-08-04T06:07:09.288Z,992.02
2018-08-04T06:08:09.273Z,992.00
2018-08-04T06:09:09.305Z,992.13
2018-08-04T06:10:09.241Z,992.09
2018-08-04T06:11:09.234Z,992.10
2018-08-04T06:12:09.230Z,992.04
2018-08-04T06:13:09.209Z,992.09
2018-08-04T06:14:09.215Z,992.10
2018-08-04T06:15:09.204Z,992.10
2018-08-04T06:16:09.188Z,992.09
2018-08-04T06:17:09.187Z,992.13
2018-08-04T06:18:09.182Z,992.10
2018-08-04T06:19:09.190Z,992.10
2018-08-04T06:20:09.166Z,992.10
2018-08-04T06:21:09.134Z,992.17
2018-08-04T06:22:09.189Z,992.11
2018-08-04T06:23:09.118Z,992.12
2018-08-04T06:24:09.125Z,992.09
2018-08-04T06:25:09.150Z,992.06
2018-08-04T06:26:09.090Z,992.05
2018-08-04T06:27:09.090Z,992.09
2018-08-04T06:28:09.084Z,992.04
2018-08-04T06:29:09.080Z,992.09
2018-08-04T06:30:09.053Z,992.10
2018-08-04T06:31:09.032Z,992.10
2018-08-04T06:32:09.027Z,992.06
2018-08-04T06:33:09.041Z,992.08
2018-08-04T06:34:09.039Z,992.02
2018-08-04T06:35:08.999Z,992.06
2018-08-04T06:36:08.980Z,992.02
2018-08-04T06:37:08.965Z,992.03
2018-08-04T06:38:08.977Z,992.01
2018-08-04T06:39:08.969Z,992.04
2018-08-04T06:40:08.959Z,992.07
2018-08-04T06:41:08.930Z,992.06
2018-08-04T06:42:08.905Z,992.01
2018-08-04T06:43:08.909Z,992.09
2018-08-04T06:44:08.912Z,992.10
2018-08-04T06:45:08.880Z,992.11
2018-08-04T06:46:08.887Z,992.08
2018-08-04T06:47:08.863Z,992.10
2018-08-04T06:48:08.878Z,992.14
2018-08-04T06:49:08.862Z,992.09
2018-08-04T06:50:08.840Z,992.04
2018-08-04T06:51:08.831Z,992.06
2018-08-04T06:52:08.814Z,992.07
2018-08-04T06:53:08.797Z,992.08
2018-08-04T06:54:08.805Z,992.04
2018-08-04T06:55:08.800Z,992.10
2018-08-04T06:56:08.775Z,992.08
2018-08-04T06:57:08.745Z,992.08
2018-08-04T06:58:08.749Z,992.09
2018-08-04T06:59:08.785Z,992.14
2018-08-04T07:00:08.726Z,992.09
2018-08-04T07:01:08.717Z,992.12
2018-08-04T07:02:08.700Z,992.05
2018-08-04T07:03:08.744Z,992.09
2018-08-04T07:04:08.709Z,992.04
2018-08-04T07:05:08.723Z,992.00
2018-08-04T07:06:08.663Z,992.02
2018-08-04T07:07:08.665Z,992.01
2018-08-04T07:08:08.653Z,991.98
2018-08-04T07:09:08.633Z,991.97
2018-08-04T07:10:08.635Z,992.04
2018-08-04T07:11:08.606Z,992.06
2018-08-04T07:12:08.600Z,992.04
2018-08-04T07:13:08.640Z,992.04
2018-08-04T07:14:08.598Z,992.09
2018-08-04T07:15:08.583Z,992.13
2018-08-04T07:16:08.659Z,992.14
2018-08-04T07:17:08.591Z,992.12
2018-08-04T07:18:08.571Z,992.13
2018-08-04T07:19:08.527Z,992.17
2018-08-04T07:20:08.550Z,992.17
2018-08-04T07:21:08.538Z,992.17
2018-08-04T07:22:08.498Z,992.16
2018-08-04T07:23:08.513Z,992.11
2018-08-04T07:24:08.493Z,992.10
2018-08-04T07:25:08.691Z,992.12
2018-08-04T07:26:08.494Z,992.06
2018-08-04T07:27:08.463Z,992.04
2018-08-04T07:28:08.464Z,992.01
2018-08-04T07:29:08.440Z,992.03
2018-08-04T07:30:08.436Z,992.05
2018-08-04T07:31:08.408Z,992.08
2018-08-04T07:32:08.415Z,992.08
2018-08-04T07:33:08.384Z,992.03
2018-08-04T07:34:08.361Z,992.05
2018-08-04T07:35:08.376Z,992.07
2018-08-04T07:36:08.339Z,992.06
2018-08-04T07:37:08.342Z,992.00
2018-08-04T07:38:08.320Z,992.00
2018-08-04T07:39:08.307Z,992.02
2018-08-04T07:40:08.323Z,992.08
2018-08-04T07:41:08.297Z,992.04
2018-08-04T07:42:08.301Z,992.04
2018-08-04T07:43:08.295Z,992.07
2018-08-04T07:44:08.255Z,992.04
2018-08-04T07:45:08.268Z,992.00
2018-08-04T07:46:08.240Z,992.04
2018-08-04T07:47:08.227Z,992.10
2018-08-04T07:48:08.223Z,992.10
2018-08-04T07:49:08.269Z,992.08
2018-08-04T07:50:08.239Z,992.09
2018-08-04T07:51:08.195Z,992.08
2018-08-04T07:52:08.250Z,992.12
2018-08-04T07:53:08.183Z,992.07
2018-08-04T07:54:08.209Z,992.12
2018-08-04T07:55:08.175Z,992.12
2018-08-04T07:56:08.166Z,992.10
2018-08-04T07:57:08.159Z,992.08
2018-08-04T07:58:08.168Z,992.13
2018-08-04T07:59:08.135Z,992.08
2018-08-04T08:00:08.130Z,992.07
2018-08-04T08:01:08.099Z,992.04
2018-08-04T08:02:08.107Z,992.09
2018-08-04T08:03:08.137Z,992.08
2018-08-04T08:04:08.073Z,992.08
2018-08-04T08:05:08.108Z,992.07
2018-08-04T08:06:08.127Z,992.06
2018-08-04T08:07:08.045Z,992.08
2018-08-04T08:08:08.014Z,992.09
2018-08-04T08:09:08.229Z,992.06
2018-08-04T08:10:08.010Z,992.09
2018-08-04T08:11:08.081Z,992.04
2018-08-04T08:12:08.005Z,992.01
2018-08-04T08:13:07.985Z,992.00
2018-08-04T08:14:07.980Z,992.03
2018-08-04T08:15:07.991Z,992.05
2018-08-04T08:16:07.952Z,992.09
2018-08-04T08:17:07.925Z,992.03
2018-08-04T08:18:07.919Z,992.05
2018-08-04T08:19:07.919Z,992.06
2018-08-04T08:20:07.975Z,992.06
2018-08-04T08:21:07.915Z,992.05
2018-08-04T08:22:07.865Z,992.06
2018-08-04T08:23:07.946Z,992.01
2018-08-04T08:24:07.850Z,992.03
2018-08-04T08:25:08.343Z,992.05
2018-08-04T08:26:07.851Z,992.02
2018-08-04T08:27:07.815Z,992.09
2018-08-04T08:28:07.810Z,991.99
2018-08-04T08:29:07.824Z,992.01
2018-08-04T08:30:07.812Z,992.03
2018-08-04T08:31:07.837Z,992.03
2018-08-04T08:32:07.769Z,992.01
2018-08-04T08:33:07.816Z,992.04
2018-08-04T08:34:07.749Z,992.04
2018-08-04T08:35:07.748Z,991.96
2018-08-04T08:36:07.774Z,992.02
2018-08-04T08:37:07.717Z,991.98
2018-08-04T08:38:07.734Z,992.04
2018-08-04T08:39:07.722Z,992.07
2018-08-04T08:40:07.700Z,992.07
2018-08-04T08:41:07.709Z,992.11
2018-08-04T08:42:07.667Z,992.10
2018-08-04T08:43:07.699Z,992.02
2018-08-04T08:44:07.650Z,992.08
2018-08-04T08:45:07.662Z,992.05
2018-08-04T08:46:07.668Z,992.01
2018-08-04T08:47:07.621Z,992.02
2018-08-04T08:48:07.616Z,992.04
2018-08-04T08:49:07.597Z,992.04
2018-08-04T08:50:07.600Z,992.00
2018-08-04T08:51:07.601Z,992.05
2018-08-04T08:52:07.563Z,992.05
2018-08-04T08:53:07.642Z,992.01
2018-08-04T08:54:07.666Z,991.98
2018-08-04T08:55:07.542Z,992.00
2018-08-04T08:56:07.584Z,991.98
2018-08-04T08:57:07.520Z,992.02
2018-08-04T08:58:07.509Z,991.99
2018-08-04T08:59:07.498Z,992.00
2018-08-04T09:00:07.486Z,992.05
2018-08-04T09:01:07.529Z,992.03
2018-08-04T09:02:07.504Z,992.02
2018-08-04T09:03:07.516Z,992.06
2018-08-04T09:04:07.429Z,992.04
2018-08-04T09:05:07.456Z,992.02
2018-08-04T09:06:07.461Z,991.98
2018-08-04T09:07:07.425Z,991.98
2018-08-04T09:08:07.423Z,992.00
2018-08-04T09:09:07.404Z,991.99
2018-08-04T09:10:07.411Z,991.93
2018-08-04T09:11:07.411Z,991.97
2018-08-04T09:12:07.393Z,991.94
2018-08-04T09:13:07.360Z,991.97
2018-08-04T09:14:07.354Z,991.92
2018-08-04T09:15:07.377Z,991.97
2018-08-04T09:16:07.331Z,991.95
2018-08-04T09:17:07.358Z,991.94
2018-08-04T09:18:07.312Z,991.94
2018-08-04T09:19:07.303Z,991.95
2018-08-04T09:20:07.286Z,991.91
2018-08-04T09:21:07.279Z,991.96
2018-08-04T09:22:07.300Z,991.93
2018-08-04T09:23:07.318Z,991.89
2018-08-04T09:24:07.271Z,991.94
2018-08-04T09:25:07.250Z,991.93
2018-08-04T09:26:07.368Z,991.88
2018-08-04T09:27:07.265Z,991.83
2018-08-04T09:28:07.231Z,991.85
2018-08-04T09:29:07.253Z,991.85
2018-08-04T09:30:07.214Z,991.83
2018-08-04T09:31:07.346Z,991.85
2018-08-04T09:32:07.216Z,991.82
2018-08-04T09:33:07.183Z,991.84
2018-08-04T09:34:07.167Z,991.83
2018-08-04T09:35:07.203Z,991.81
2018-08-04T09:36:07.141Z,991.75
2018-08-04T09:37:07.152Z,991.78
2018-08-04T09:38:07.163Z,991.79
2018-08-04T09:39:07.150Z,991.77
2018-08-04T09:40:07.113Z,991.75
2018-08-04T09:41:07.101Z,991.81
2018-08-04T09:42:07.132Z,991.80
2018-08-04T09:43:07.154Z,991.81
2018-08-04T09:44:07.093Z,991.78
2018-08-04T09:45:07.071Z,991.77
2018-08-04T09:46:07.076Z,991.80
2018-08-04T09:47:07.048Z,991.77
2018-08-04T09:48:07.035Z,991.84
2018-08-04T09:49:07.054Z,991.82
2018-08-04T09:50:07.060Z,991.78
2018-08-04T09:51:07.021Z,991.75
2018-08-04T09:52:07.014Z,991.78
2018-08-04T09:53:06.982Z,991.75
2018-08-04T09:54:06.986Z,991.72
2018-08-04T09:55:06.972Z,991.74
2018-08-04T09:56:07.011Z,991.76
2018-08-04T09:57:06.967Z,991.74
2018-08-04T09:58:06.946Z,991.76
2018-08-04T09:59:06.949Z,991.68
2018-08-04T10:00:06.922Z,991.74
2018-08-04T10:01:06.928Z,991.71
2018-08-04T10:02:06.986Z,991.73
2018-08-04T10:03:06.929Z,991.79
2018-08-04T10:04:06.903Z,991.77
2018-08-04T10:05:07.052Z,991.75
2018-08-04T10:06:06.880Z,991.76
2018-08-04T10:07:06.973Z,991.72
2018-08-04T10:08:06.850Z,991.72
2018-08-04T10:09:06.847Z,991.76
2018-08-04T10:10:06.904Z,991.73
2018-08-04T10:11:06.841Z,991.70
2018-08-04T10:12:06.844Z,991.66
2018-08-04T10:13:06.868Z,991.63
2018-08-04T10:14:06.799Z,991.57
2018-08-04T10:15:06.795Z,991.58
2018-08-04T10:16:06.789Z,991.59
2018-08-04T10:17:06.877Z,991.57
2018-08-04T10:18:06.777Z,991.57
2018-08-04T10:19:06.759Z,991.56
2018-08-04T10:20:06.769Z,991.50
2018-08-04T10:21:06.749Z,991.52
2018-08-04T10:22:06.755Z,991.46
2018-08-04T10:23:06.879Z,991.50
2018-08-04T10:24:06.747Z,991.45
2018-08-04T10:25:06.727Z,991.41
2018-08-04T10:26:06.770Z,991.38
2018-08-04T10:27:06.691Z,991.40
2018-08-04T10:28:06.713Z,991.41
2018-08-04T10:29:06.672Z,991.39
2018-08-04T10:30:06.698Z,991.41
2018-08-04T10:31:06.655Z,991.43
2018-08-04T10:32:06.780Z,991.44
2018-08-04T10:33:06.654Z,991.43
2018-08-04T10:34:06.776Z,991.38
2018-08-04T10:35:06.672Z,991.42
2018-08-04T10:36:06.633Z,991.45
2018-08-04T10:37:06.656Z,991.39
2018-08-04T10:38:06.607Z,991.37
2018-08-04T10:39:06.588Z,991.40
2018-08-04T10:40:06.613Z,991.37
2018-08-04T10:41:06.557Z,991.42
2018-08-04T10:42:06.544Z,991.46
2018-08-04T10:43:06.572Z,991.46
2018-08-04T10:44:06.583Z,991.38
2018-08-04T10:45:06.529Z,991.37
2018-08-04T10:46:06.519Z,991.35
2018-08-04T10:47:06.498Z,991.33
2018-08-04T10:48:06.525Z,991.37
2018-08-04T10:49:06.492Z,991.32
2018-08-04T10:50:06.488Z,991.35
2018-08-04T10:51:06.531Z,991.35
2018-08-04T10:52:06.480Z,991.36
2018-08-04T10:53:06.485Z,991.31
2018-08-04T10:54:06.493Z,991.34
2018-08-04T10:55:06.445Z,991.31
2018-08-04T10:56:06.432Z,991.26
2018-08-04T10:57:06.433Z,991.26
2018-08-04T10:58:06.432Z,991.28
2018-08-04T10:59:06.410Z,991.26
2018-08-04T11:00:06.419Z,991.24
2018-08-04T11:01:06.394Z,991.22
2018-08-04T11:02:06.391Z,991.24
2018-08-04T11:03:06.398Z,991.26
2018-08-04T11:04:06.364Z,991.24
2018-08-04T11:05:06.344Z,991.27
2018-08-04T11:06:06.367Z,991.25
2018-08-04T11:07:06.330Z,991.28
2018-08-04T11:08:06.356Z,991.26
2018-08-04T11:09:06.370Z,991.28
2018-08-04T11:10:06.312Z,991.31
2018-08-04T11:11:06.297Z,991.24
2018-08-04T11:12:06.291Z,991.24
2018-08-04T11:13:06.327Z,991.24
2018-08-04T11:14:06.313Z,991.30
2018-08-04T11:15:06.284Z,991.26
2018-08-04T11:16:06.277Z,991.28
2018-08-04T11:17:06.279Z,991.35
2018-08-04T11:18:06.295Z,991.32
2018-08-04T11:19:06.281Z,991.34
2018-08-04T11:20:06.244Z,991.27
2018-08-04T11:21:06.239Z,991.33
2018-08-04T11:22:06.206Z,991.30
2018-08-04T11:23:06.194Z,991.27
2018-08-04T11:24:06.226Z,991.28
2018-08-04T11:25:06.199Z,991.36
2018-08-04T11:26:06.188Z,991.36
2018-08-04T11:27:06.177Z,991.27
2018-08-04T11:28:06.226Z,991.33
2018-08-04T11:29:06.172Z,991.25
2018-08-04T11:30:06.170Z,991.27
2018-08-04T11:31:06.133Z,991.25
2018-08-04T11:32:06.144Z,991.20
2018-08-04T11:33:06.116Z,991.27
2018-08-04T11:34:06.125Z,991.27
2018-08-04T11:35:06.095Z,991.19
2018-08-04T11:36:06.145Z,991.18
2018-08-04T11:37:06.092Z,991.24
2018-08-04T11:38:06.081Z,991.17
2018-08-04T11:39:06.126Z,991.15
2018-08-04T11:40:06.074Z,991.18
2018-08-04T11:41:06.062Z,991.13
2018-08-04T11:42:06.062Z,991.18
2018-08-04T11:43:06.098Z,991.16
2018-08-04T11:44:06.058Z,991.19
2018-08-04T11:45:06.018Z,991.22
2018-08-04T11:46:06.014Z,991.16
2018-08-04T11:47:06.027Z,991.13
2018-08-04T11:48:05.996Z,991.10
2018-08-04T11:49:06.102Z,991.19
2018-08-04T11:50:05.973Z,991.22
2018-08-04T11:51:05.964Z,991.17
2018-08-04T11:52:05.977Z,991.17
2018-08-04T11:53:06.024Z,991.15
2018-08-04T11:54:05.992Z,991.13
2018-08-04T11:55:05.951Z,991.07
2018-08-04T11:56:05.927Z,991.10
2018-08-04T11:57:06.021Z,991.10
2018-08-04T11:58:09.592Z,991.04
2018-08-04T11:59:07.328Z,991.01
2018-08-04T12:00:20.773Z,990.99
2018-08-04T12:01:05.976Z,990.97
2018-08-04T12:02:05.871Z,990.94
2018-08-04T12:03:06.006Z,990.97
2018-08-04T12:04:05.987Z,990.89
2018-08-04T12:05:05.988Z,990.87
2018-08-04T12:06:05.855Z,990.80
2018-08-04T12:07:05.916Z,990.86
2018-08-04T12:08:06.066Z,990.85
2018-08-04T12:09:05.841Z,990.81
2018-08-04T12:10:06.119Z,990.74
2018-08-04T12:11:05.818Z,990.85
2018-08-04T12:12:05.790Z,990.78
2018-08-04T12:13:06.185Z,990.84
2018-08-04T12:14:06.008Z,990.86
2018-08-04T12:15:05.985Z,990.85
2018-08-04T12:16:05.759Z,990.73
2018-08-04T12:17:05.766Z,990.76
2018-08-04T12:18:05.775Z,990.71
2018-08-04T12:19:05.769Z,990.70
2018-08-04T12:20:05.769Z,990.69
2018-08-04T12:21:05.734Z,990.75
2018-08-04T12:22:05.738Z,990.74
2018-08-04T12:23:05.703Z,990.70
2018-08-04T12:24:05.742Z,990.72
2018-08-04T12:25:05.683Z,990.75
2018-08-04T12:26:05.683Z,990.75
2018-08-04T12:27:05.672Z,990.75
2018-08-04T12:28:05.659Z,990.79